Time;durP1;ratioP1;P1;durP2;ratioP2;P2;SDS_P1;SDS_P2;PMS_P1;PMS_P2;Temp;Humidity;BMP_temperature;BMP_pressure;BME280_temperature;BME280_humidity;BME280_pressure;Samples;Min_cycle;Max_cycle;Signal;HPM_P1;HPM_P2
2022/03/07 00:01:09;;;;;;;8.15;1.92;;;-0.30;99.90;;;;;;4966800;28;20062;-73
2022/03/07 00:03:35;;;;;;;13.10;2.30;;;-0.30;99.90;;;;;;4999856;28;20133;-73
2022/03/07 00:06:00;;;;;;;8.20;1.80;;;-0.30;99.90;;;;;;4980934;28;20193;-73
2022/03/07 00:08:27;;;;;;;6.85;1.65;;;-0.30;99.90;;;;;;4982061;28;20046;-73
2022/03/07 00:10:53;;;;;;;7.97;1.88;;;-0.30;99.90;;;;;;4969812;28;20100;-73
2022/03/07 00:13:21;;;;;;;10.32;1.73;;;-0.30;99.90;;;;;;4967756;28;20182;-73
2022/03/07 00:15:46;;;;;;;6.85;1.40;;;-0.30;99.90;;;;;;4964610;28;20834;-73
2022/03/07 00:18:12;;;;;;;18.13;1.70;;;-0.20;99.90;;;;;;4967411;28;20082;-73
2022/03/07 00:20:38;;;;;;;3.78;1.30;;;-0.20;99.90;;;;;;4959002;28;20133;-73
2022/03/07 00:23:04;;;;;;;7.57;1.73;;;-0.20;99.90;;;;;;5004966;28;20081;-73
2022/03/07 00:25:30;;;;;;;6.47;1.15;;;-0.30;99.90;;;;;;5007546;28;20089;-73
2022/03/07 00:27:56;;;;;;;11.23;1.92;;;-0.30;99.90;;;;;;4985949;28;20053;-73
2022/03/07 00:30:23;;;;;;;11.90;1.60;;;-0.40;99.90;;;;;;4976763;28;20045;-73
2022/03/07 00:32:49;;;;;;;5.03;1.50;;;-0.40;99.90;;;;;;4986453;28;20050;-73
2022/03/07 00:35:16;;;;;;;9.65;1.80;;;-0.50;99.90;;;;;;4987079;28;20556;-73
2022/03/07 00:37:42;;;;;;;4.70;1.75;;;-0.50;99.90;;;;;;4984606;28;20500;-73
2022/03/07 00:40:10;;;;;;;6.68;1.92;;;-0.50;99.90;;;;;;4972562;28;20034;-73
2022/03/07 00:42:39;;;;;;;6.68;1.38;;;-0.50;99.90;;;;;;4981951;28;20042;-73
2022/03/07 00:45:09;;;;;;;3.58;1.67;;;-0.60;99.90;;;;;;4995336;28;20492;-73
2022/03/07 00:47:35;;;;;;;5.47;1.48;;;-0.60;99.90;;;;;;4986566;28;20046;-73
2022/03/07 00:50:04;;;;;;;3.60;1.50;;;-0.60;99.90;;;;;;5004600;28;20041;-73
2022/03/07 00:52:29;;;;;;;11.15;1.58;;;-0.70;99.90;;;;;;5007363;28;20050;-73
2022/03/07 00:54:55;;;;;;;4.40;1.60;;;-0.60;99.90;;;;;;4989511;28;20045;-73
2022/03/07 00:57:21;;;;;;;6.15;1.63;;;-0.60;99.90;;;;;;5007228;28;20643;-73
2022/03/07 00:59:47;;;;;;;10.20;1.45;;;-0.60;99.90;;;;;;4986681;28;20062;-73
2022/03/07 01:02:12;;;;;;;7.65;1.90;;;-0.60;99.90;;;;;;4983369;28;20500;-73
2022/03/07 01:04:38;;;;;;;7.18;1.50;;;-0.70;99.90;;;;;;5002655;28;20091;-73
2022/03/07 01:07:04;;;;;;;4.78;1.60;;;-0.60;99.90;;;;;;4985608;28;20038;-73
2022/03/07 01:09:30;;;;;;;8.73;1.75;;;-0.60;99.90;;;;;;4977362;28;20038;-73
2022/03/07 01:11:56;;;;;;;12.40;1.85;;;-0.70;99.90;;;;;;4986409;28;20092;-73
2022/03/07 01:14:21;;;;;;;7.30;1.75;;;-0.70;99.90;;;;;;4987365;28;20107;-73
2022/03/07 01:16:47;;;;;;;5.22;1.67;;;-0.70;99.90;;;;;;4985928;28;20077;-73
2022/03/07 01:19:13;;;;;;;11.38;1.65;;;-0.80;99.90;;;;;;4979411;28;20073;-73
2022/03/07 01:21:40;;;;;;;4.85;1.65;;;-0.80;99.90;;;;;;5005473;28;20061;-73
2022/03/07 01:24:07;;;;;;;10.55;2.10;;;-0.80;99.90;;;;;;5006267;28;20060;-73
2022/03/07 01:26:33;;;;;;;4.00;1.92;;;-0.80;99.90;;;;;;4986145;28;20053;-73
2022/03/07 01:28:59;;;;;;;1.70;1.48;;;-0.90;99.90;;;;;;4976172;28;20046;-73
2022/03/07 01:31:25;;;;;;;3.17;1.48;;;-0.90;99.90;;;;;;4985449;28;20050;-74
2022/03/07 01:33:51;;;;;;;3.03;1.35;;;-0.90;99.90;;;;;;4991034;28;20081;-73
2022/03/07 01:36:16;;;;;;;2.75;1.58;;;-1.00;99.90;;;;;;4990027;28;20050;-74
2022/03/07 01:38:42;;;;;;;3.63;1.33;;;-1.00;99.90;;;;;;5003127;28;20046;-74
2022/03/07 01:41:08;;;;;;;6.43;1.63;;;-1.10;99.90;;;;;;5000331;28;20510;-73
2022/03/07 01:43:34;;;;;;;9.20;1.70;;;-1.10;99.90;;;;;;4978944;28;20120;-74
2022/03/07 01:46:00;;;;;;;6.13;1.67;;;-1.10;99.90;;;;;;4988887;28;20072;-73
2022/03/07 01:48:25;;;;;;;5.30;1.45;;;-1.20;99.90;;;;;;4986780;28;20053;-74
2022/03/07 01:50:51;;;;;;;5.32;1.70;;;-1.30;99.90;;;;;;4988940;28;20042;-74
2022/03/07 01:53:19;;;;;;;4.53;1.67;;;-1.30;99.90;;;;;;4983775;28;20038;-74
2022/03/07 01:55:45;;;;;;;6.55;1.80;;;-1.40;99.90;;;;;;4972344;28;20081;-74
2022/03/07 01:58:11;;;;;;;5.93;1.60;;;-1.40;99.90;;;;;;4980820;28;20042;-74
2022/03/07 02:00:36;;;;;;;3.53;1.48;;;-1.40;99.90;;;;;;4987012;28;20042;-74
2022/03/07 02:03:02;;;;;;;5.55;1.52;;;-1.40;99.90;;;;;;4971447;28;20042;-74
2022/03/07 02:05:28;;;;;;;15.40;2.20;;;-1.40;99.90;;;;;;4988574;28;20046;-74
2022/03/07 02:07:55;;;;;;;8.68;2.35;;;-1.50;99.90;;;;;;4991296;28;20037;-74
2022/03/07 02:10:25;;;;;;;3.33;1.65;;;-1.50;99.90;;;;;;4989480;28;20136;-74
2022/03/07 02:12:50;;;;;;;4.70;1.58;;;-1.50;99.90;;;;;;4971695;28;20050;-74
2022/03/07 02:15:16;;;;;;;7.32;2.38;;;-1.50;99.90;;;;;;4983484;28;20048;-74
2022/03/07 02:17:46;;;;;;;3.03;2.08;;;-1.50;99.90;;;;;;4988678;28;20043;-74
2022/03/07 02:20:12;;;;;;;3.22;1.67;;;-1.50;99.90;;;;;;4978680;28;20088;-74
2022/03/07 02:22:38;;;;;;;6.22;1.70;;;-1.50;99.90;;;;;;4986772;28;20519;-74
2022/03/07 02:25:05;;;;;;;10.75;1.90;;;-1.50;99.90;;;;;;4988380;28;20121;-74
2022/03/07 02:27:32;;;;;;;5.97;1.58;;;-1.50;99.90;;;;;;4984432;28;20092;-74
2022/03/07 02:30:05;;;;;;;5.90;1.73;;;-1.50;99.90;;;;;;4989401;28;20046;-74
2022/03/07 02:32:31;;;;;;;4.10;1.63;;;-1.60;99.90;;;;;;4983594;28;20129;-73
2022/03/07 02:34:57;;;;;;;10.45;1.95;;;-1.60;99.90;;;;;;5002084;28;20138;-73
2022/03/07 02:37:23;;;;;;;8.13;1.60;;;-1.70;99.90;;;;;;4988024;28;20132;-74
2022/03/07 02:39:49;;;;;;;4.13;1.60;;;-1.70;99.90;;;;;;5006249;28;20412;-74
2022/03/07 02:42:15;;;;;;;5.78;1.77;;;-1.70;99.90;;;;;;4988064;28;20042;-74
2022/03/07 02:44:41;;;;;;;14.38;1.70;;;-1.70;99.90;;;;;;4985529;28;20049;-74
2022/03/07 02:47:07;;;;;;;6.35;2.17;;;-1.70;99.90;;;;;;4990906;28;20045;-74
2022/03/07 02:49:33;;;;;;;10.55;2.13;;;-1.80;99.90;;;;;;4988564;28;20047;-74
2022/03/07 02:51:59;;;;;;;8.57;2.33;;;-1.70;99.90;;;;;;4971674;28;20053;-74
2022/03/07 02:54:24;;;;;;;4.78;1.50;;;-1.70;99.90;;;;;;4964055;28;20046;-74
2022/03/07 02:56:50;;;;;;;11.95;1.95;;;-1.70;99.90;;;;;;5000707;28;20038;-74
2022/03/07 02:59:16;;;;;;;4.88;2.30;;;-1.80;99.90;;;;;;4974658;28;20061;-74
2022/03/07 03:01:44;;;;;;;4.30;2.40;;;-1.80;99.90;;;;;;4991236;28;20434;-74
2022/03/07 03:04:10;;;;;;;2.53;1.50;;;-1.80;99.90;;;;;;4987337;28;20062;-74
2022/03/07 03:06:36;;;;;;;8.52;2.00;;;-1.80;99.90;;;;;;4982759;28;20397;-74
2022/03/07 03:09:02;;;;;;;7.22;2.30;;;-1.80;99.90;;;;;;4993178;28;20042;-74
2022/03/07 03:11:28;;;;;;;3.53;1.85;;;-1.80;99.90;;;;;;4988112;28;20418;-74
2022/03/07 03:13:54;;;;;;;5.18;2.03;;;-1.90;99.90;;;;;;4982390;28;20045;-74
2022/03/07 03:16:20;;;;;;;7.40;2.10;;;-1.90;99.90;;;;;;4987356;28;20042;-74
2022/03/07 03:18:45;;;;;;;4.90;2.33;;;-1.90;99.90;;;;;;4967020;28;20053;-74
2022/03/07 03:21:11;;;;;;;7.43;2.72;;;-1.90;99.90;;;;;;4974172;28;20097;-74
2022/03/07 03:23:37;;;;;;;7.95;2.30;;;-1.90;99.90;;;;;;4988175;28;20042;-74
2022/03/07 03:26:03;;;;;;;5.40;2.42;;;-1.90;99.90;;;;;;4985694;28;20053;-74
2022/03/07 03:28:29;;;;;;;4.55;2.13;;;-1.90;99.90;;;;;;4973196;28;20050;-74
2022/03/07 03:30:55;;;;;;;8.00;2.50;;;-1.90;99.90;;;;;;4988280;28;20404;-74
2022/03/07 03:33:21;;;;;;;10.40;2.70;;;-1.90;99.90;;;;;;4990467;28;20135;-75
2022/03/07 03:35:47;;;;;;;9.93;3.20;;;-1.90;99.90;;;;;;4981382;28;20049;-75
2022/03/07 03:38:13;;;;;;;11.85;3.33;;;-2.00;99.90;;;;;;4996730;28;20443;-75
2022/03/07 03:40:39;;;;;;;6.32;2.00;;;-2.00;99.90;;;;;;4980998;28;20042;-74
2022/03/07 03:43:05;;;;;;;6.68;2.22;;;-2.00;99.90;;;;;;4993635;28;20045;-74
2022/03/07 03:45:31;;;;;;;7.35;2.30;;;-2.00;99.90;;;;;;4981161;28;20499;-75
2022/03/07 03:47:57;;;;;;;3.67;2.00;;;-2.10;99.90;;;;;;4995166;28;20500;-74
2022/03/07 03:50:23;;;;;;;7.97;1.85;;;-2.10;99.90;;;;;;4990184;28;20493;-75
2022/03/07 03:52:49;;;;;;;6.20;2.20;;;-2.10;99.90;;;;;;4998921;28;20038;-75
2022/03/07 03:55:16;;;;;;;5.65;1.65;;;-2.10;99.90;;;;;;4975527;28;20387;-75
2022/03/07 03:57:42;;;;;;;2.55;1.90;;;-2.20;99.90;;;;;;4996805;28;20041;-75
2022/03/07 04:00:12;;;;;;;4.07;1.80;;;-2.20;99.90;;;;;;4988129;28;20042;-75
2022/03/07 04:02:38;;;;;;;3.80;1.80;;;-2.20;99.90;;;;;;4991503;28;20034;-75
2022/03/07 04:05:04;;;;;;;7.20;1.77;;;-2.20;99.90;;;;;;4972925;28;20128;-75
2022/03/07 04:07:30;;;;;;;3.30;1.83;;;-2.10;99.90;;;;;;4990217;28;20501;-75
2022/03/07 04:09:56;;;;;;;4.30;1.70;;;-2.20;99.90;;;;;;4970687;28;20065;-75
2022/03/07 04:12:22;;;;;;;4.90;2.08;;;-2.10;99.90;;;;;;4985438;28;20042;-75
2022/03/07 04:14:47;;;;;;;2.25;1.75;;;-2.20;99.90;;;;;;4990033;28;20050;-75
2022/03/07 04:17:13;;;;;;;7.93;1.95;;;-2.20;99.90;;;;;;4986330;28;20042;-74
2022/03/07 04:19:39;;;;;;;5.07;1.88;;;-2.10;99.90;;;;;;4986527;28;20065;-75
2022/03/07 04:22:04;;;;;;;3.33;2.17;;;-2.20;99.90;;;;;;4981038;28;20085;-74
2022/03/07 04:24:31;;;;;;;5.28;2.08;;;-2.20;99.90;;;;;;4987199;28;20039;-75
2022/03/07 04:26:58;;;;;;;11.70;2.17;;;-2.20;99.90;;;;;;4976255;28;20049;-74
2022/03/07 04:29:24;;;;;;;5.40;2.20;;;-2.20;99.90;;;;;;4988093;28;20050;-74
2022/03/07 04:31:49;;;;;;;4.82;2.33;;;-2.10;99.90;;;;;;4989472;28;20053;-75
2022/03/07 04:34:15;;;;;;;5.03;1.80;;;-2.20;99.90;;;;;;4985717;28;20052;-75
2022/03/07 04:36:41;;;;;;;5.25;2.10;;;-2.20;99.90;;;;;;4986846;28;20078;-74
2022/03/07 04:39:09;;;;;;;16.35;2.15;;;-2.20;99.90;;;;;;4977680;28;20043;-74
2022/03/07 04:41:36;;;;;;;12.02;2.80;;;-2.20;99.90;;;;;;4987314;28;20059;-74
2022/03/07 04:44:02;;;;;;;4.30;2.38;;;-2.20;99.90;;;;;;4988713;28;20052;-74
2022/03/07 04:46:28;;;;;;;6.97;2.58;;;-2.20;99.90;;;;;;4988581;28;20050;-75
2022/03/07 04:48:54;;;;;;;8.15;3.03;;;-2.20;99.90;;;;;;4986291;28;20042;-75
2022/03/07 04:51:20;;;;;;;6.97;2.70;;;-2.20;99.90;;;;;;4981023;28;20060;-75
2022/03/07 04:53:45;;;;;;;5.97;2.70;;;-2.20;99.90;;;;;;4988817;28;20052;-75
2022/03/07 04:56:12;;;;;;;13.90;2.50;;;-2.30;99.90;;;;;;4985368;28;20096;-75
2022/03/07 04:58:38;;;;;;;10.70;2.72;;;-2.30;99.90;;;;;;4989456;28;20046;-75
2022/03/07 05:01:05;;;;;;;4.00;2.10;;;-2.30;99.90;;;;;;4997811;28;20046;-75
2022/03/07 05:03:31;;;;;;;6.82;2.70;;;-2.20;99.90;;;;;;4989905;28;20461;-74
2022/03/07 05:05:57;;;;;;;7.65;2.17;;;-2.20;99.90;;;;;;4969910;28;20052;-75
2022/03/07 05:08:22;;;;;;;8.20;2.42;;;-2.20;99.90;;;;;;4983367;28;20046;-74
2022/03/07 05:10:48;;;;;;;5.20;1.83;;;-2.20;99.90;;;;;;5009931;28;20081;-74
2022/03/07 05:13:14;;;;;;;8.75;2.30;;;-2.20;99.90;;;;;;4989883;28;20038;-75
2022/03/07 05:15:40;;;;;;;2.13;1.90;;;-2.20;99.90;;;;;;4988873;28;20050;-75
2022/03/07 05:18:06;;;;;;;6.28;2.25;;;-2.30;99.90;;;;;;4989044;28;20053;-75
2022/03/07 05:20:32;;;;;;;5.20;2.50;;;-2.30;99.90;;;;;;4983213;28;20121;-75
2022/03/07 05:22:58;;;;;;;9.93;2.53;;;-2.30;99.90;;;;;;4991128;28;20042;-74
2022/03/07 05:25:24;;;;;;;10.10;2.78;;;-2.30;99.90;;;;;;5009245;28;20050;-74
2022/03/07 05:27:51;;;;;;;8.80;2.30;;;-2.30;99.90;;;;;;4976875;28;20050;-74
2022/03/07 05:30:19;;;;;;;2.42;1.88;;;-2.40;99.90;;;;;;5025621;28;20084;-74
2022/03/07 05:32:54;;;;;;;5.28;2.08;;;-2.40;99.90;;;;;;5007642;28;20075;-75
2022/03/07 05:35:21;;;;;;;4.15;2.78;;;-2.40;99.90;;;;;;5008629;28;20048;-74
2022/03/07 05:37:47;;;;;;;6.15;2.42;;;-2.40;99.90;;;;;;5008272;28;20136;-74
2022/03/07 05:40:14;;;;;;;8.23;2.97;;;-2.50;99.90;;;;;;5005027;28;20571;-75
2022/03/07 05:42:40;;;;;;;8.48;2.58;;;-2.50;99.90;;;;;;4999529;28;20054;-75
2022/03/07 05:45:08;;;;;;;7.20;2.28;;;-2.50;99.90;;;;;;5005870;28;20096;-75
2022/03/07 05:47:34;;;;;;;9.35;2.60;;;-2.50;99.90;;;;;;4992955;28;20038;-75
2022/03/07 05:50:00;;;;;;;7.53;2.35;;;-2.50;99.90;;;;;;5006076;28;20497;-75
2022/03/07 05:52:26;;;;;;;9.02;2.35;;;-2.40;99.90;;;;;;4994991;28;20133;-75
2022/03/07 05:54:52;;;;;;;8.07;2.40;;;-2.40;99.90;;;;;;5007267;28;20050;-75
2022/03/07 05:57:17;;;;;;;7.18;3.53;;;-2.40;99.90;;;;;;5004463;28;20093;-75
2022/03/07 05:59:43;;;;;;;4.53;2.50;;;-2.40;99.90;;;;;;5009383;28;20085;-75
2022/03/07 06:02:09;;;;;;;8.30;2.28;;;-2.40;99.90;;;;;;5008117;28;20060;-75
2022/03/07 06:04:35;;;;;;;2.97;2.28;;;-2.40;99.90;;;;;;5005697;28;20052;-75
2022/03/07 06:07:01;;;;;;;4.25;2.03;;;-2.50;99.90;;;;;;5006193;28;20080;-75
2022/03/07 06:09:26;;;;;;;6.47;2.30;;;-2.40;99.90;;;;;;5004695;28;20042;-75
2022/03/07 06:11:52;;;;;;;2.40;2.20;;;-2.50;99.90;;;;;;4997420;28;20030;-75
2022/03/07 06:14:18;;;;;;;13.25;2.80;;;-2.50;99.90;;;;;;4985983;28;20125;-75
2022/03/07 06:16:44;;;;;;;7.03;2.53;;;-2.40;99.90;;;;;;4995851;28;20133;-75
2022/03/07 06:19:10;;;;;;;7.20;2.40;;;-2.40;99.90;;;;;;5003070;28;20040;-75
2022/03/07 06:21:36;;;;;;;8.38;2.60;;;-2.40;99.90;;;;;;4992581;28;20065;-75
2022/03/07 06:24:02;;;;;;;5.60;2.55;;;-2.40;99.90;;;;;;4962753;28;20135;-75
2022/03/07 06:26:28;;;;;;;12.02;3.30;;;-2.40;99.90;;;;;;4969136;28;20038;-75
2022/03/07 06:28:53;;;;;;;8.15;2.70;;;-2.30;99.90;;;;;;4963404;28;20117;-75
2022/03/07 06:31:19;;;;;;;10.27;2.90;;;-2.30;99.90;;;;;;4966689;28;20058;-75
2022/03/07 06:33:45;;;;;;;5.93;2.90;;;-2.20;99.90;;;;;;4960265;28;20039;-75
2022/03/07 06:36:12;;;;;;;6.32;3.05;;;-2.10;99.90;;;;;;4970699;28;20505;-75
2022/03/07 06:38:39;;;;;;;12.52;3.38;;;-2.10;99.90;;;;;;4973466;28;20038;-75
2022/03/07 06:41:06;;;;;;;5.38;3.10;;;-2.00;99.90;;;;;;4968802;28;20051;-75
2022/03/07 06:43:32;;;;;;;8.05;3.22;;;-1.80;99.90;;;;;;4953125;28;20046;-75
2022/03/07 06:45:58;;;;;;;11.00;3.33;;;-1.60;99.90;;;;;;4948326;28;20041;-75
2022/03/07 06:48:24;;;;;;;6.40;3.38;;;-1.30;99.90;;;;;;4968461;28;20391;-75
2022/03/07 06:50:50;;;;;;;12.73;4.00;;;-1.20;99.90;;;;;;4959943;28;20129;-75
2022/03/07 06:53:16;;;;;;;13.65;3.38;;;-1.10;99.90;;;;;;4966766;28;20086;-75
2022/03/07 06:55:42;;;;;;;12.25;4.00;;;-1.10;99.90;;;;;;4969522;28;20035;-75
2022/03/07 06:58:08;;;;;;;15.88;3.90;;;-1.00;99.90;;;;;;4965282;28;20053;-75
2022/03/07 07:00:34;;;;;;;8.02;3.58;;;-0.90;99.90;;;;;;4969221;28;20035;-75
2022/03/07 07:02:59;;;;;;;12.23;3.40;;;-0.80;99.90;;;;;;4966888;28;20052;-75
2022/03/07 07:05:25;;;;;;;17.98;4.53;;;-0.80;99.90;;;;;;4966827;28;20047;-75
2022/03/07 07:07:51;;;;;;;7.82;3.50;;;-0.70;99.90;;;;;;4960939;28;20047;-75
2022/03/07 07:10:20;;;;;;;11.27;4.00;;;-0.60;99.90;;;;;;4983569;28;20125;-75
2022/03/07 07:12:49;;;;;;;7.78;3.90;;;-0.50;99.90;;;;;;4968922;28;20051;-75
2022/03/07 07:15:16;;;;;;;11.73;4.13;;;-0.50;99.90;;;;;;4969796;28;20038;-75
2022/03/07 07:17:42;;;;;;;15.93;5.50;;;-0.40;99.90;;;;;;4971996;28;20043;-75
2022/03/07 07:20:10;;;;;;;16.90;5.63;;;-0.30;99.90;;;;;;4971802;28;20061;-75
2022/03/07 07:22:37;;;;;;;22.25;5.63;;;-0.20;99.90;;;;;;4996199;28;20046;-75
2022/03/07 07:25:04;;;;;;;19.77;5.47;;;0.00;99.90;;;;;;4988451;28;20408;-75
2022/03/07 07:27:30;;;;;;;19.30;6.25;;;0.10;99.90;;;;;;4985159;28;20052;-75
2022/03/07 07:29:56;;;;;;;20.25;7.22;;;0.30;99.90;;;;;;4990994;28;20048;-75
2022/03/07 07:32:21;;;;;;;20.95;7.10;;;0.40;99.90;;;;;;4978339;28;20585;-75
2022/03/07 07:34:48;;;;;;;18.17;7.72;;;0.60;99.90;;;;;;4986303;28;20049;-76
2022/03/07 07:37:13;;;;;;;12.85;6.97;;;0.70;99.90;;;;;;4969436;28;20129;-75
2022/03/07 07:39:39;;;;;;;21.55;7.97;;;0.80;99.90;;;;;;4990446;28;20128;-76
2022/03/07 07:42:05;;;;;;;28.80;10.43;;;0.90;99.90;;;;;;4986341;28;20038;-76
2022/03/07 07:44:31;;;;;;;20.00;8.70;;;1.00;99.90;;;;;;4983278;28;20048;-76
2022/03/07 07:46:57;;;;;;;22.27;8.77;;;1.00;99.90;;;;;;4986745;28;20039;-76
2022/03/07 07:49:24;;;;;;;23.98;9.38;;;1.10;99.90;;;;;;4977804;28;20038;-76
2022/03/07 07:51:53;;;;;;;24.40;9.57;;;1.30;99.90;;;;;;4990366;28;20104;-76
2022/03/07 07:54:19;;;;;;;29.48;11.48;;;1.40;99.90;;;;;;4985587;28;20097;-76
2022/03/07 07:56:45;;;;;;;20.23;9.02;;;1.50;99.90;;;;;;4990793;28;20516;-75
2022/03/07 07:59:11;;;;;;;22.83;9.32;;;1.70;99.90;;;;;;4985664;28;20508;-75
2022/03/07 08:01:37;;;;;;;31.88;9.35;;;1.80;99.90;;;;;;4983067;28;20046;-76
2022/03/07 08:04:03;;;;;;;36.47;13.35;;;2.00;99.90;;;;;;4988320;28;20065;-75
2022/03/07 08:06:29;;;;;;;71.78;13.93;;;2.10;99.90;;;;;;4975039;28;20053;-75
2022/03/07 08:08:54;;;;;;;31.65;10.52;;;2.20;99.90;;;;;;4961551;28;20412;-76
2022/03/07 08:11:20;;;;;;;48.55;9.93;;;2.40;99.90;;;;;;4985284;28;20061;-75
2022/03/07 08:13:46;;;;;;;21.98;8.13;;;2.60;99.90;;;;;;4978624;28;20421;-75
2022/03/07 08:16:12;;;;;;;20.60;5.70;;;2.80;99.90;;;;;;4985105;28;20046;-75
2022/03/07 08:18:37;;;;;;;24.35;6.72;;;2.90;99.90;;;;;;4972592;28;20036;-76
2022/03/07 08:21:03;;;;;;;16.83;4.78;;;3.10;99.90;;;;;;4996931;28;20052;-75
2022/03/07 08:23:29;;;;;;;25.48;9.48;;;3.20;99.90;;;;;;4980820;28;20088;-75
2022/03/07 08:25:55;;;;;;;19.45;8.13;;;3.30;99.90;;;;;;4988846;28;20077;-75
2022/03/07 08:28:21;;;;;;;23.42;9.38;;;3.30;99.90;;;;;;4986965;28;20042;-75
2022/03/07 08:30:47;;;;;;;22.45;10.55;;;3.40;99.90;;;;;;4980654;28;20557;-75
2022/03/07 08:33:13;;;;;;;29.75;10.52;;;3.50;99.90;;;;;;4979890;28;20050;-75
2022/03/07 08:35:39;;;;;;;27.05;11.52;;;3.60;99.90;;;;;;4994894;28;20386;-75
2022/03/07 08:38:06;;;;;;;29.90;12.20;;;3.60;99.90;;;;;;4991697;28;20061;-75
2022/03/07 08:40:32;;;;;;;37.83;12.10;;;3.70;99.90;;;;;;4985550;28;20049;-75
2022/03/07 08:42:57;;;;;;;29.50;10.70;;;3.80;99.90;;;;;;4975742;28;20448;-75
2022/03/07 08:45:25;;;;;;;35.47;9.35;;;3.90;99.90;;;;;;4974389;28;20122;-75
2022/03/07 08:47:52;;;;;;;23.48;9.98;;;4.00;99.90;;;;;;4971874;28;20096;-75
2022/03/07 08:50:18;;;;;;;25.42;10.80;;;4.10;99.90;;;;;;4990410;28;20492;-75
2022/03/07 08:52:45;;;;;;;26.52;9.25;;;4.20;99.90;;;;;;4974180;28;20042;-75
2022/03/07 08:55:11;;;;;;;28.92;9.93;;;4.30;99.90;;;;;;4972625;28;20077;-75
2022/03/07 08:57:38;;;;;;;37.08;11.02;;;4.40;99.90;;;;;;4970345;28;20085;-75
2022/03/07 09:00:06;;;;;;;27.50;10.60;;;4.50;99.90;;;;;;4987524;28;20050;-75
2022/03/07 09:02:32;;;;;;;26.10;11.05;;;4.60;99.90;;;;;;4985144;28;20078;-75
2022/03/07 09:04:58;;;;;;;32.55;9.68;;;4.60;99.90;;;;;;4988499;28;20081;-75
2022/03/07 09:07:27;;;;;;;26.25;9.90;;;4.70;99.90;;;;;;4968722;28;20045;-76
2022/03/07 09:09:53;;;;;;;35.80;11.35;;;4.90;99.90;;;;;;4981852;28;20424;-76
2022/03/07 09:12:18;;;;;;;37.15;9.95;;;5.00;99.90;;;;;;4980458;28;20042;-79
2022/03/07 09:14:44;;;;;;;34.65;10.02;;;5.10;99.90;;;;;;4984728;28;20046;-76
2022/03/07 09:17:10;;;;;;;18.30;7.20;;;5.20;99.90;;;;;;4981332;28;20140;-75
2022/03/07 09:19:36;;;;;;;23.33;8.13;;;5.40;99.90;;;;;;4983903;28;20394;-76
2022/03/07 09:22:02;;;;;;;21.08;8.13;;;5.50;99.90;;;;;;4979598;28;20041;-76
2022/03/07 09:24:28;;;;;;;24.77;7.88;;;5.60;99.90;;;;;;4970969;28;20037;-76
2022/03/07 09:26:54;;;;;;;29.27;8.15;;;5.70;99.90;;;;;;4986060;28;20065;-76
2022/03/07 09:29:19;;;;;;;18.23;7.43;;;5.80;99.90;;;;;;4980467;28;20706;-76
2022/03/07 09:31:45;;;;;;;22.77;3.53;;;5.80;99.90;;;;;;4986939;28;20056;-76
2022/03/07 09:34:12;;;;;;;19.33;7.68;;;5.80;99.90;;;;;;4984311;28;20178;-76
2022/03/07 09:36:38;;;;;;;23.13;7.38;;;5.70;99.90;;;;;;4984047;28;20125;-76
2022/03/07 09:39:05;;;;;;;14.77;1.77;;;5.50;99.90;;;;;;4961165;28;20129;-76
2022/03/07 09:41:30;;;;;;;9.48;2.10;;;5.40;99.90;;;;;;4981547;28;20508;-76
2022/03/07 09:43:56;;;;;;;10.35;1.95;;;5.40;99.90;;;;;;4984925;28;20042;-76
2022/03/07 09:46:22;;;;;;;10.60;1.52;;;5.40;99.90;;;;;;4985227;28;20031;-76
2022/03/07 09:48:48;;;;;;;8.23;1.10;;;5.60;99.90;;;;;;4985677;28;20453;-76
2022/03/07 09:51:14;;;;;;;14.77;1.92;;;5.80;99.90;;;;;;4977627;28;20152;-76
2022/03/07 09:53:39;;;;;;;9.05;1.98;;;5.90;99.90;;;;;;4993913;28;20046;-76
2022/03/07 09:56:05;;;;;;;15.23;2.38;;;6.00;99.90;;;;;;4970135;28;20400;-77
2022/03/07 09:58:31;;;;;;;11.95;2.10;;;6.20;99.90;;;;;;4965685;28;20046;-77
2022/03/07 10:01:09;;;;;;;5.85;1.70;;;6.20;99.90;;;;;;4989461;28;20049;-77
2022/03/07 10:03:35;;;;;;;8.77;1.77;;;6.30;99.90;;;;;;4971293;28;20450;-77
2022/03/07 10:06:01;;;;;;;5.57;1.00;;;6.30;99.90;;;;;;4987164;28;20071;-77
2022/03/07 10:08:28;;;;;;;6.32;1.10;;;6.30;99.90;;;;;;4986618;28;20050;-77
2022/03/07 10:10:56;;;;;;;5.93;1.65;;;6.40;99.90;;;;;;4972382;28;20145;-77
2022/03/07 10:13:23;;;;;;;6.90;1.60;;;6.50;99.90;;;;;;4987982;28;20114;-77
2022/03/07 10:16:04;;;;;;;15.20;1.77;;;6.30;99.90;;;;;;4985278;28;20116;-77
2022/03/07 10:18:30;;;;;;;12.27;1.60;;;6.40;99.90;;;;;;4988939;28;20221;-77
2022/03/07 10:21:01;;;;;;;7.95;1.35;;;6.60;99.90;;;;;;4992986;28;20530;-76
2022/03/07 10:23:27;;;;;;;10.65;1.58;;;6.70;99.90;;;;;;4978151;28;20034;-76
2022/03/07 10:26:06;;;;;;;7.63;1.58;;;6.80;99.90;;;;;;4990569;28;20076;-76
2022/03/07 10:28:38;;;;;;;8.40;2.38;;;6.90;99.90;;;;;;4983846;28;20148;-76
2022/03/07 10:31:17;;;;;;;8.02;1.75;;;6.90;99.90;;;;;;4995612;28;20057;-75
2022/03/07 10:33:45;;;;;;;4.75;1.38;;;6.80;99.90;;;;;;4985294;28;20057;-75
2022/03/07 10:36:12;;;;;;;9.60;1.90;;;6.80;99.90;;;;;;5000033;28;20038;-75
2022/03/07 10:38:37;;;;;;;12.32;1.85;;;6.90;99.90;;;;;;5005285;28;20396;-75
2022/03/07 10:41:04;;;;;;;7.43;1.88;;;7.00;99.90;;;;;;4999994;28;20594;-75
2022/03/07 10:43:30;;;;;;;6.15;2.00;;;7.00;99.90;;;;;;4975356;28;20077;-75
2022/03/07 10:45:58;;;;;;;8.98;1.55;;;7.00;99.90;;;;;;4996812;28;20053;-75
2022/03/07 10:48:28;;;;;;;4.03;1.60;;;7.00;99.90;;;;;;4957782;28;20748;-74
2022/03/07 10:50:56;;;;;;;5.63;1.80;;;7.20;99.90;;;;;;4987923;28;20042;-75
2022/03/07 10:53:23;;;;;;;11.40;2.33;;;7.30;99.90;;;;;;4973496;28;20049;-75
2022/03/07 10:55:58;;;;;;;8.65;1.77;;;7.30;99.90;;;;;;4972714;28;20046;-75
2022/03/07 10:58:24;;;;;;;10.73;2.22;;;7.30;99.90;;;;;;4988565;28;20133;-75
2022/03/07 11:00:53;;;;;;;4.13;1.25;;;7.20;99.90;;;;;;4987687;28;20527;-75
2022/03/07 11:03:46;;;;;;;5.80;1.85;;;7.30;99.90;;;;;;4988110;28;20128;-74
2022/03/07 11:06:12;;;;;;;3.17;1.40;;;7.40;99.90;;;;;;4984882;28;20473;-75
2022/03/07 11:08:38;;;;;;;9.00;1.92;;;7.60;99.90;;;;;;4987606;28;20052;-75
2022/03/07 11:11:03;;;;;;;9.68;1.88;;;7.50;99.90;;;;;;4972645;28;20463;-75
2022/03/07 11:13:30;;;;;;;12.70;3.05;;;7.40;99.90;;;;;;4973349;28;20046;-75
2022/03/07 11:16:02;;;;;;;6.10;1.50;;;7.20;99.90;;;;;;4960998;28;20116;-75
2022/03/07 11:18:29;;;;;;;13.88;2.15;;;7.20;99.90;;;;;;4973759;28;20072;-75
2022/03/07 11:20:56;;;;;;;8.52;1.70;;;7.20;99.90;;;;;;4997595;28;20084;-75
2022/03/07 11:23:23;;;;;;;6.00;1.70;;;7.10;99.90;;;;;;4980861;28;20500;-76
2022/03/07 11:25:51;;;;;;;7.07;1.77;;;7.00;99.90;;;;;;4988222;28;20113;-76
2022/03/07 11:28:17;;;;;;;8.98;2.05;;;7.00;99.90;;;;;;4989140;28;20042;-76
2022/03/07 11:30:44;;;;;;;8.73;2.35;;;7.10;99.90;;;;;;4971630;28;20128;-76
2022/03/07 11:33:16;;;;;;;6.78;1.98;;;7.10;99.90;;;;;;4972792;28;20399;-76
2022/03/07 11:35:50;;;;;;;5.35;1.95;;;7.20;99.90;;;;;;4988923;28;20050;-76
2022/03/07 11:38:35;;;;;;;10.80;2.22;;;7.20;99.90;;;;;;4973434;28;20589;-76
2022/03/07 11:41:09;;;;;;;10.23;2.92;;;7.30;99.90;;;;;;4986530;28;20523;-76
2022/03/07 11:43:51;;;;;;;6.15;1.67;;;7.30;99.90;;;;;;4984277;28;20041;-76
2022/03/07 11:46:39;;;;;;;7.85;2.22;;;7.30;99.90;;;;;;4994081;28;20500;-76
2022/03/07 11:49:07;;;;;;;9.02;2.05;;;7.30;99.90;;;;;;4984718;28;20050;-76
2022/03/07 11:51:41;;;;;;;9.50;2.13;;;7.40;99.90;;;;;;4991047;28;20145;-76
2022/03/07 11:54:18;;;;;;;7.85;2.15;;;7.40;99.90;;;;;;4979101;28;20037;-75
2022/03/07 11:56:44;;;;;;;11.10;2.30;;;7.40;99.90;;;;;;4971406;28;20045;-75
2022/03/07 11:59:11;;;;;;;6.32;1.65;;;7.60;99.90;;;;;;4959044;28;20455;-77
2022/03/07 12:01:37;;;;;;;12.95;2.55;;;7.80;99.90;;;;;;4972441;28;20065;-76
2022/03/07 12:04:42;;;;;;;6.38;2.00;;;7.90;99.90;;;;;;4990553;28;20480;-76
2022/03/07 12:07:08;;;;;;;7.03;2.10;;;7.90;99.90;;;;;;4976023;28;20531;-77
2022/03/07 12:09:36;;;;;;;7.70;1.88;;;8.00;99.90;;;;;;4987002;28;20070;-77
2022/03/07 12:12:07;;;;;;;7.90;2.40;;;8.10;99.90;;;;;;4979044;28;20469;-77
2022/03/07 12:14:40;;;;;;;5.03;2.03;;;8.10;99.90;;;;;;4969011;28;20042;-76
2022/03/07 12:17:10;;;;;;;2.92;1.15;;;8.10;99.90;;;;;;4984223;28;20121;-77
2022/03/07 12:19:36;;;;;;;4.38;1.45;;;8.10;99.90;;;;;;4987548;28;20056;-76
2022/03/07 12:22:16;;;;;;;3.45;1.63;;;8.20;99.90;;;;;;4969996;28;20046;-77
2022/03/07 12:24:43;;;;;;;7.55;2.05;;;8.20;99.90;;;;;;4986200;28;20265;-77
2022/03/07 12:27:10;;;;;;;12.23;2.13;;;8.20;99.90;;;;;;4986511;28;20070;-78
2022/03/07 12:29:43;;;;;;;8.43;2.40;;;8.10;99.90;;;;;;4952989;28;20217;-77
2022/03/07 12:32:09;;;;;;;7.78;1.83;;;7.70;99.90;;;;;;4984536;28;20045;-76
2022/03/07 12:34:39;;;;;;;6.22;2.70;;;7.70;99.90;;;;;;4990479;28;20075;-77
2022/03/07 12:37:18;;;;;;;5.28;1.67;;;7.80;99.90;;;;;;4983500;28;20050;-77
2022/03/07 12:39:48;;;;;;;5.68;1.98;;;7.80;99.90;;;;;;4983099;28;20046;-77
2022/03/07 12:42:16;;;;;;;3.85;2.22;;;7.70;99.90;;;;;;4998965;28;20428;-77
2022/03/07 12:44:43;;;;;;;4.50;1.58;;;7.90;99.90;;;;;;4977011;28;20076;-77
2022/03/07 12:47:10;;;;;;;4.63;1.25;;;8.00;99.90;;;;;;4987609;28;20030;-76